createdAt,value
2023-02-08T00:00:16.082Z,99927.94
2023-02-08T00:02:49.196Z,99924.03
2023-02-08T00:05:22.317Z,99923.38
2023-02-08T00:07:55.427Z,99919.13
2023-02-08T00:10:29.003Z,99917.97
2023-02-08T00:13:04.594Z,99914.78
2023-02-08T00:15:43.017Z,99909.13
2023-02-08T00:18:16.319Z,99905.47
2023-02-08T00:20:49.792Z,99901.13
2023-02-08T00:23:23.091Z,99900.69
2023-02-08T00:25:56.089Z,99890.69
2023-02-08T00:28:30.581Z,99900.47
2023-02-08T00:31:04.266Z,99898.72
2023-02-08T00:33:37.667Z,99898.22
2023-02-08T00:36:13.196Z,99902.06
2023-02-08T00:38:46.294Z,99899.34
2023-02-08T00:41:19.344Z,99900.94
2023-02-08T00:43:53.724Z,99886.69
2023-02-08T00:46:26.844Z,99888.94
2023-02-08T00:48:59.980Z,99891.22
2023-02-08T00:51:32.999Z,99893.50
2023-02-08T00:54:06.036Z,99896.22
2023-02-08T00:56:39.072Z,99887.34
2023-02-08T00:59:14.488Z,99891.72
2023-02-08T01:01:47.604Z,99903.50
2023-02-08T01:04:20.642Z,99899.38
2023-02-08T01:06:53.873Z,99891.28
2023-02-08T01:09:26.993Z,99912.38
2023-02-08T01:12:00.036Z,99911.00
2023-02-08T01:14:34.395Z,99908.50
2023-02-08T01:17:07.946Z,99913.50
2023-02-08T01:19:42.522Z,99899.88
2023-02-08T01:22:15.741Z,99894.44
2023-02-08T01:24:48.865Z,99898.50
2023-02-08T01:27:21.852Z,99892.38
2023-02-08T01:29:56.268Z,99895.31
2023-02-08T01:32:29.309Z,99887.38
2023-02-08T01:35:02.340Z,99876.72
2023-02-08T01:37:35.405Z,99878.53
2023-02-08T01:40:09.853Z,99882.81
2023-02-08T01:42:42.958Z,99874.66
2023-02-08T01:45:35.456Z,99865.84
2023-02-08T01:48:14.385Z,99869.44
2023-02-08T01:50:55.222Z,99866.94
2023-02-08T01:53:30.576Z,99871.28
2023-02-08T01:56:09.331Z,99876.31
2023-02-08T01:58:46.937Z,99871.31
2023-02-08T02:01:21.389Z,99872.69
2023-02-08T02:03:54.844Z,99877.69
2023-02-08T02:06:32.632Z,99874.28
2023-02-08T02:09:19.314Z,99870.44
2023-02-08T02:11:54.696Z,99876.09
2023-02-08T02:14:28.272Z,99866.56
2023-02-08T02:17:02.862Z,99864.56
2023-02-08T02:19:46.183Z,99857.50
2023-02-08T02:22:55.299Z,99853.41
2023-02-08T02:25:53.800Z,99853.63
2023-02-08T02:28:58.177Z,99849.34
2023-02-08T02:31:54.409Z,99845.28
2023-02-08T02:34:39.620Z,99846.41
2023-02-08T02:37:31.526Z,99853.19
2023-02-08T02:40:12.922Z,99850.94
2023-02-08T02:43:19.755Z,99849.34
2023-02-08T02:46:01.401Z,99836.63
2023-02-08T02:48:43.634Z,99843.69
2023-02-08T02:51:20.350Z,99848.44
2023-02-08T02:54:00.617Z,99846.41
2023-02-08T02:56:38.646Z,99858.63
2023-02-08T02:59:13.872Z,99846.88
2023-02-08T03:01:48.629Z,99853.19
2023-02-08T03:04:52.856Z,99841.63
2023-02-08T03:07:50.343Z,99845.72
2023-02-08T03:10:42.295Z,99840.28
2023-02-08T03:13:27.796Z,99840.97
2023-02-08T03:16:15.853Z,99843.69
2023-02-08T03:19:07.494Z,99834.19
2023-02-08T03:21:49.681Z,99841.19
2023-02-08T03:24:29.741Z,99843.00
2023-02-08T03:27:08.226Z,99836.41
2023-02-08T03:29:50.308Z,99837.75
2023-02-08T03:32:29.312Z,99839.56
2023-02-08T03:35:07.698Z,99833.94
2023-02-08T03:37:47.787Z,99847.09
2023-02-08T03:40:25.570Z,99835.75
2023-02-08T03:43:04.815Z,99841.19
2023-02-08T03:45:42.015Z,99838.47
2023-02-08T03:48:17.024Z,99836.19
2023-02-08T03:50:54.090Z,99844.63
2023-02-08T03:53:29.637Z,99840.53
2023-02-08T03:56:10.117Z,99837.34
2023-02-08T03:58:49.027Z,99842.13
2023-02-08T04:01:30.479Z,99840.06
2023-02-08T04:04:04.101Z,99832.81
2023-02-08T04:06:37.253Z,99835.28
2023-02-08T04:09:11.975Z,99838.94
2023-02-08T04:11:44.987Z,99841.44
2023-02-08T04:14:18.244Z,99832.81
2023-02-08T04:16:51.700Z,99839.16
2023-02-08T04:19:24.771Z,99831.91
2023-02-08T04:21:57.834Z,99834.66
2023-02-08T04:24:32.328Z,99833.75
2023-02-08T04:27:06.140Z,99831.25
2023-02-08T04:29:39.294Z,99823.31
2023-02-08T04:32:13.396Z,99824.66
2023-02-08T04:34:46.467Z,99823.78
2023-02-08T04:37:19.497Z,99823.78
2023-02-08T04:39:53.915Z,99818.53
2023-02-08T04:42:27.182Z,99821.72
2023-02-08T04:45:00.184Z,99822.38
2023-02-08T04:47:33.259Z,99816.50
2023-02-08T04:50:07.273Z,99821.03
2023-02-08T04:52:40.348Z,99819.91
2023-02-08T04:55:14.765Z,99816.50
2023-02-08T04:57:47.939Z,99811.50
2023-02-08T05:00:21.192Z,99809.72
2023-02-08T05:02:55.107Z,99811.50
2023-02-08T05:05:28.837Z,99814.91
2023-02-08T05:08:03.727Z,99806.06
2023-02-08T05:10:38.289Z,99811.06
2023-02-08T05:13:12.543Z,99806.06
2023-02-08T05:15:45.678Z,99804.72
2023-02-08T05:18:18.806Z,99804.72
2023-02-08T05:20:59.039Z,99799.75
2023-02-08T05:23:33.286Z,99806.53
2023-02-08T05:26:10.441Z,99807.88
2023-02-08T05:28:43.821Z,99805.88
2023-02-08T05:31:21.556Z,99806.53
2023-02-08T05:33:55.102Z,99802.44
2023-02-08T05:36:28.251Z,99808.56
2023-02-08T05:39:01.303Z,99808.38
2023-02-08T05:41:35.937Z,99808.13
2023-02-08T05:44:09.060Z,99811.97
2023-02-08T05:46:42.171Z,99810.63
2023-02-08T05:49:15.702Z,99811.06
2023-02-08T05:51:50.258Z,99810.16
2023-02-08T05:54:23.736Z,99811.50
2023-02-08T05:56:58.104Z,99803.34
2023-02-08T05:59:31.145Z,99809.72
2023-02-08T06:02:06.108Z,99811.31
2023-02-08T06:04:39.343Z,99811.97
2023-02-08T06:07:12.357Z,99819.88
2023-02-08T06:09:47.569Z,99815.59
2023-02-08T06:12:22.833Z,99829.19
2023-02-08T06:14:55.893Z,99827.81
2023-02-08T06:17:28.963Z,99825.78
2023-02-08T06:20:02.039Z,99833.75
2023-02-08T06:22:36.017Z,99844.16
2023-02-08T06:25:09.407Z,99839.19
2023-02-08T06:27:43.853Z,99834.63
2023-02-08T06:30:17.738Z,99837.13
2023-02-08T06:32:50.799Z,99835.75
2023-02-08T06:35:23.979Z,99834.41
2023-02-08T06:37:57.101Z,99826.91
2023-02-08T06:40:30.280Z,99826.47
2023-02-08T06:43:04.737Z,99836.69
2023-02-08T06:45:37.834Z,99835.09
2023-02-08T06:48:10.910Z,99830.09
2023-02-08T06:50:44.312Z,99827.81
2023-02-08T06:53:17.495Z,99823.28
2023-02-08T06:55:51.404Z,99825.09
2023-02-08T06:58:26.075Z,99825.56
2023-02-08T07:00:59.260Z,99823.25
2023-02-08T07:03:32.376Z,99829.13
2023-02-08T07:06:06.010Z,99820.72
2023-02-08T07:08:39.359Z,99828.66
2023-02-08T07:11:15.263Z,99829.97
2023-02-08T07:13:51.205Z,99820.91
2023-02-08T07:16:24.469Z,99823.06
2023-02-08T07:18:57.581Z,99832.97
2023-02-08T07:21:30.715Z,99827.13
2023-02-08T07:24:03.826Z,99830.75
2023-02-08T07:26:37.079Z,99833.03
2023-02-08T07:29:11.688Z,99835.19
2023-02-08T07:31:44.741Z,99830.09
2023-02-08T07:34:21.893Z,99837.34
2023-02-08T07:36:55.224Z,99838.09
2023-02-08T07:39:28.662Z,99830.69
2023-02-08T07:42:01.975Z,99840.50
2023-02-08T07:44:38.193Z,99836.13
2023-02-08T07:47:11.303Z,99840.56
2023-02-08T07:49:44.395Z,99843.22
2023-02-08T07:52:17.362Z,99837.38
2023-02-08T07:54:50.384Z,99837.09
2023-02-08T07:57:23.538Z,99832.78
2023-02-08T07:59:58.074Z,99833.28
2023-02-08T08:02:31.182Z,99828.59
2023-02-08T08:05:04.507Z,99839.44
2023-02-08T08:07:38.391Z,99831.59
2023-02-08T08:10:11.580Z,99831.69
2023-02-08T08:12:44.668Z,99837.97
2023-02-08T08:15:19.357Z,99835.44
2023-02-08T08:17:52.490Z,99819.59
2023-02-08T08:20:25.726Z,99829.31
2023-02-08T08:22:58.793Z,99817.63
2023-02-08T08:25:32.234Z,99819.53
2023-02-08T08:28:06.433Z,99823.34
2023-02-08T08:30:44.705Z,99824.56
2023-02-08T08:33:17.940Z,99814.19
2023-02-08T08:35:50.982Z,99815.63
2023-02-08T08:38:24.242Z,99817.69
2023-02-08T08:40:57.323Z,99815.81
2023-02-08T08:43:30.459Z,99808.56
2023-02-08T08:46:07.135Z,99802.09
2023-02-08T08:48:40.210Z,99803.97
2023-02-08T08:51:14.148Z,99804.66
2023-02-08T08:53:47.316Z,99804.41
2023-02-08T08:56:20.421Z,99797.44
2023-02-08T08:58:53.427Z,99798.81
2023-02-08T09:01:27.849Z,99799.97
2023-02-08T09:04:01.008Z,99801.25
2023-02-08T09:06:35.294Z,99799.28
2023-02-08T09:09:09.170Z,99794.38
2023-02-08T09:11:42.273Z,99797.44
2023-02-08T09:14:16.451Z,99795.50
2023-02-08T09:16:51.021Z,99785.28
2023-02-08T09:19:24.147Z,99792.16
2023-02-08T09:21:57.981Z,99787.59
2023-02-08T09:24:31.029Z,99786.97
2023-02-08T09:27:04.783Z,99786.81
2023-02-08T09:29:37.889Z,99779.06
2023-02-08T09:32:12.437Z,99783.19
2023-02-08T09:34:45.484Z,99786.34
2023-02-08T09:37:18.510Z,99785.28
2023-02-08T09:39:51.608Z,99779.78
2023-02-08T09:42:40.182Z,99776.94
2023-02-08T09:45:36.799Z,99763.66
2023-02-08T09:48:21.837Z,99765.16
2023-02-08T09:50:58.888Z,99766.69
2023-02-08T09:53:36.328Z,99775.69
2023-02-08T09:56:16.525Z,99756.47
2023-02-08T09:58:53.290Z,99762.81
2023-02-08T10:01:29.295Z,99757.34
2023-02-08T10:04:12.941Z,99749.31
2023-02-08T10:06:46.403Z,99752.03
2023-02-08T10:09:26.276Z,99743.16
2023-02-08T10:12:14.465Z,99751.31
2023-02-08T10:15:07.382Z,99756.91
2023-02-08T10:17:58.146Z,99751.25
2023-02-08T10:20:47.461Z,99746.72
2023-02-08T10:23:45.152Z,99761.22
2023-02-08T10:26:27.466Z,99750.53
2023-02-08T10:29:41.198Z,99741.09
2023-02-08T10:32:35.552Z,99755.63
2023-02-08T10:35:14.286Z,99745.72
2023-02-08T10:37:49.093Z,99735.22
2023-02-08T10:40:32.622Z,99746.75
2023-02-08T10:43:17.357Z,99726.91
2023-02-08T10:45:57.895Z,99727.38
2023-02-08T10:48:45.608Z,99725.25
2023-02-08T10:51:23.961Z,99724.00
2023-02-08T10:53:59.184Z,99724.22
2023-02-08T10:56:44.553Z,99720.47
2023-02-08T10:59:23.380Z,99705.91
2023-02-08T11:01:58.705Z,99717.06
2023-02-08T11:04:31.798Z,99714.38
2023-02-08T11:07:22.154Z,99715.97
2023-02-08T11:10:15.119Z,99698.66
2023-02-08T11:12:58.258Z,99714.69
2023-02-08T11:15:39.827Z,99701.41
2023-02-08T11:18:23.392Z,99702.88
2023-02-08T11:21:00.382Z,99699.44
2023-02-08T11:23:36.141Z,99694.31
2023-02-08T11:26:24.425Z,99680.97
2023-02-08T11:29:03.680Z,99683.00
2023-02-08T11:31:37.072Z,99672.88
2023-02-08T11:34:12.619Z,99668.81
2023-02-08T11:36:48.161Z,99647.78
2023-02-08T11:39:26.579Z,99657.06
2023-02-08T11:42:03.318Z,99666.25
2023-02-08T11:44:44.656Z,99666.38
2023-02-08T11:47:21.545Z,99659.41
2023-02-08T11:49:57.993Z,99655.53
2023-02-08T11:52:36.659Z,99662.56
2023-02-08T11:55:21.040Z,99659.06
2023-02-08T11:57:59.860Z,99663.41
2023-02-08T12:00:36.299Z,99651.78
2023-02-08T12:03:18.317Z,99652.94
2023-02-08T12:06:03.003Z,99651.69
2023-02-08T12:08:45.458Z,99654.75
2023-02-08T12:11:27.818Z,99649.13
2023-02-08T12:14:27.181Z,99640.47
2023-02-08T12:17:26.709Z,99637.22
2023-02-08T12:20:44.310Z,99638.34
2023-02-08T12:23:50.136Z,99625.84
2023-02-08T12:26:50.861Z,99622.41
2023-02-08T12:29:47.793Z,99618.41
2023-02-08T12:32:51.311Z,99614.69
2023-02-08T12:36:02.844Z,99602.47
2023-02-08T12:39:20.242Z,99610.41
2023-02-08T12:42:16.979Z,99603.31
2023-02-08T12:45:36.906Z,99595.22
2023-02-08T12:48:31.663Z,99590.72
2023-02-08T12:51:13.491Z,99588.41
2023-02-08T12:53:51.885Z,99577.63
2023-02-08T12:56:31.806Z,99577.16
2023-02-08T12:59:13.424Z,99572.88
2023-02-08T13:01:52.225Z,99573.22
2023-02-08T13:04:33.069Z,99568.94
2023-02-08T13:07:15.566Z,99580.41
2023-02-08T13:09:55.687Z,99568.25
2023-02-08T13:12:33.950Z,99574.44
2023-02-08T13:15:28.487Z,99568.94
2023-02-08T13:18:13.960Z,99572.16
2023-02-08T13:20:51.131Z,99569.94
2023-02-08T13:23:28.218Z,99567.25
2023-02-08T13:26:07.194Z,99563.88
2023-02-08T13:28:42.732Z,99559.16
2023-02-08T13:31:21.949Z,99565.13
2023-02-08T13:34:04.582Z,99555.44
2023-02-08T13:36:41.491Z,99565.75
2023-02-08T13:39:34.647Z,99545.88
2023-02-08T13:42:20.547Z,99544.03
2023-02-08T13:44:56.524Z,99539.25
2023-02-08T13:47:33.533Z,99542.75
2023-02-08T13:50:45.273Z,99547.53
2023-02-08T13:53:20.430Z,99547.00
2023-02-08T13:56:00.001Z,99551.31
2023-02-08T13:59:06.864Z,99554.78
2023-02-08T14:02:26.835Z,99552.00
2023-02-08T14:05:46.001Z,99563.09
2023-02-08T14:08:25.484Z,99559.81
2023-02-08T14:11:13.465Z,99563.50
2023-02-08T14:13:51.667Z,99568.72
2023-02-08T14:16:30.981Z,99559.72
2023-02-08T14:19:07.038Z,99559.06
2023-02-08T14:21:46.275Z,99552.09
2023-02-08T14:24:23.860Z,99544.50
2023-02-08T14:27:09.813Z,99555.47
2023-02-08T14:29:43.053Z,99557.53
2023-02-08T14:32:24.600Z,99564.50
2023-02-08T14:35:05.337Z,99558.56
2023-02-08T14:37:40.452Z,99545.47
2023-02-08T14:40:50.964Z,99560.16
2023-02-08T14:43:34.305Z,99556.91
2023-02-08T14:46:45.600Z,99570.72
2023-02-08T14:49:20.188Z,99577.03
2023-02-08T14:51:58.089Z,99555.97
2023-02-08T14:54:38.810Z,99554.47
2023-02-08T14:57:27.985Z,99563.09
2023-02-08T15:00:06.491Z,99567.72
2023-02-08T15:02:45.982Z,99556.63
2023-02-08T15:05:24.016Z,99570.53
2023-02-08T15:07:59.124Z,99562.06
2023-02-08T15:10:40.199Z,99554.84
2023-02-08T15:13:21.279Z,99562.41
2023-02-08T15:15:57.111Z,99551.16
2023-02-08T15:18:33.454Z,99551.16
2023-02-08T15:21:16.862Z,99550.81
2023-02-08T15:24:01.313Z,99545.00
2023-02-08T15:26:36.364Z,99559.41
2023-02-08T15:29:30.099Z,99554.34
2023-02-08T15:32:15.280Z,99556.91
2023-02-08T15:34:55.041Z,99555.78
2023-02-08T15:37:32.161Z,99550.25
2023-02-08T15:40:05.717Z,99556.34
2023-02-08T15:42:45.847Z,99553.59
2023-02-08T15:45:30.574Z,99551.22
2023-02-08T15:48:04.568Z,99546.91
2023-02-08T15:50:38.010Z,99544.03
2023-02-08T15:53:16.694Z,99545.34
2023-02-08T15:55:54.327Z,99551.47
2023-02-08T15:58:34.056Z,99548.50
2023-02-08T16:01:10.128Z,99549.75
2023-02-08T16:03:48.202Z,99549.59
2023-02-08T16:06:27.710Z,99550.28
2023-02-08T16:09:04.465Z,99542.78
2023-02-08T16:11:38.058Z,99537.72
2023-02-08T16:14:18.604Z,99541.34
2023-02-08T16:16:54.512Z,99543.69
2023-02-08T16:19:29.981Z,99550.72
2023-02-08T16:22:26.602Z,99544.94
2023-02-08T16:25:24.545Z,99541.53
2023-02-08T16:27:57.706Z,99543.34
2023-02-08T16:30:32.558Z,99549.84
2023-02-08T16:33:10.085Z,99554.69
2023-02-08T16:35:43.282Z,99546.38
2023-02-08T16:38:22.531Z,99558.81
2023-02-08T16:40:59.197Z,99549.75
2023-02-08T16:43:33.446Z,99559.38
2023-02-08T16:46:25.813Z,99556.97
2023-02-08T16:48:59.079Z,99555.56
2023-02-08T16:51:34.171Z,99555.75
2023-02-08T16:54:08.624Z,99556.41
2023-02-08T16:56:44.066Z,99555.13
2023-02-08T16:59:18.110Z,99551.50
2023-02-08T17:01:52.644Z,99548.47
2023-02-08T17:04:27.300Z,99563.19
2023-02-08T17:07:01.135Z,99567.25
2023-02-08T17:09:34.481Z,99570.34
2023-02-08T17:12:21.895Z,99563.81
2023-02-08T17:14:55.895Z,99571.25
2023-02-08T17:17:30.329Z,99572.00
2023-02-08T17:20:03.418Z,99577.84
2023-02-08T17:22:36.468Z,99572.06
2023-02-08T17:25:09.686Z,99580.34
2023-02-08T17:27:42.923Z,99583.00
2023-02-08T17:30:23.863Z,99580.94
2023-02-08T17:32:58.255Z,99577.34
2023-02-08T17:35:33.249Z,99584.19
2023-02-08T17:38:07.162Z,99584.03
2023-02-08T17:40:40.292Z,99588.78
2023-02-08T17:43:14.679Z,99588.41
2023-02-08T17:45:48.177Z,99593.78
2023-02-08T17:48:22.819Z,99594.69
2023-02-08T17:50:55.913Z,99598.81
2023-02-08T17:53:29.047Z,99602.38
2023-02-08T17:56:02.260Z,99601.41
2023-02-08T17:58:35.709Z,99603.75
2023-02-08T18:01:11.204Z,99596.13
2023-02-08T18:03:46.505Z,99602.19
2023-02-08T18:06:20.607Z,99609.19
2023-02-08T18:08:55.098Z,99606.09
2023-02-08T18:11:28.345Z,99607.06
2023-02-08T18:14:01.414Z,99597.00
2023-02-08T18:16:36.167Z,99603.97
2023-02-08T18:19:11.123Z,99600.00
2023-02-08T18:21:44.662Z,99605.91
2023-02-08T18:24:17.952Z,99606.84
2023-02-08T18:26:51.211Z,99596.63
2023-02-08T18:29:24.693Z,99591.00
2023-02-08T18:31:58.038Z,99597.47
2023-02-08T18:34:33.414Z,99593.25
2023-02-08T18:37:06.817Z,99595.50
2023-02-08T18:39:40.468Z,99603.88
2023-02-08T18:42:13.809Z,99589.19
2023-02-08T18:44:47.232Z,99602.22
2023-02-08T18:47:20.334Z,99603.88
2023-02-08T18:49:57.567Z,99600.75
2023-02-08T18:52:31.752Z,99601.16
2023-02-08T18:55:06.052Z,99589.66
2023-02-08T18:57:40.008Z,99598.59
2023-02-08T19:00:15.047Z,99594.50
2023-02-08T19:02:48.132Z,99595.81
2023-02-08T19:05:22.555Z,99594.63
2023-02-08T19:07:55.611Z,99593.97
2023-02-08T19:10:28.698Z,99587.44
2023-02-08T19:13:01.854Z,99575.78
2023-02-08T19:15:37.053Z,99587.44
2023-02-08T19:18:10.891Z,99579.97
2023-02-08T19:20:45.352Z,99580.47
2023-02-08T19:23:18.430Z,99579.81
2023-02-08T19:25:51.545Z,99581.25
2023-02-08T19:28:24.645Z,99577.41
2023-02-08T19:31:05.415Z,99583.41
2023-02-08T19:33:39.243Z,99581.63
2023-02-08T19:36:17.775Z,99582.13
2023-02-08T19:38:52.724Z,99573.88
2023-02-08T19:41:29.197Z,99582.91
2023-02-08T19:44:04.649Z,99571.69
2023-02-08T19:46:39.029Z,99567.50
2023-02-08T19:49:14.025Z,99568.09
2023-02-08T19:51:48.384Z,99574.31
2023-02-08T19:54:22.085Z,99576.34
2023-02-08T19:56:55.918Z,99576.75
2023-02-08T19:59:33.145Z,99581.25
2023-02-08T20:02:11.446Z,99569.91
2023-02-08T20:04:44.649Z,99565.00
2023-02-08T20:07:19.175Z,99565.41
2023-02-08T20:09:52.280Z,99567.31
2023-02-08T20:12:25.430Z,99566.97
2023-02-08T20:14:58.536Z,99568.69
2023-02-08T20:17:31.572Z,99572.69
2023-02-08T20:20:05.116Z,99569.41
2023-02-08T20:22:39.598Z,99570.19
2023-02-08T20:25:12.709Z,99569.03
2023-02-08T20:27:45.891Z,99578.84
2023-02-08T20:30:19.751Z,99569.03
2023-02-08T20:32:53.194Z,99569.50
2023-02-08T20:35:26.531Z,99569.81
2023-02-08T20:38:00.979Z,99572.22
2023-02-08T20:40:33.955Z,99578.38
2023-02-08T20:43:07.076Z,99571.38
2023-02-08T20:45:42.072Z,99579.72
2023-02-08T20:48:15.261Z,99567.81
2023-02-08T20:50:48.313Z,99572.72
2023-02-08T20:53:23.185Z,99566.41
2023-02-08T20:55:56.208Z,99562.31
2023-02-08T20:58:29.209Z,99565.38
2023-02-08T21:01:02.685Z,99565.78
2023-02-08T21:03:36.216Z,99564.03
2023-02-08T21:06:14.080Z,99573.91
2023-02-08T21:08:51.673Z,99566.63
2023-02-08T21:11:26.919Z,99562.53
2023-02-08T21:14:01.187Z,99565.28
2023-02-08T21:16:34.607Z,99560.44
2023-02-08T21:19:08.002Z,99550.41
2023-02-08T21:21:41.013Z,99553.50
2023-02-08T21:24:15.432Z,99550.69
2023-02-08T21:26:48.750Z,99558.69
2023-02-08T21:29:23.468Z,99548.88
2023-02-08T21:31:57.647Z,99557.75
2023-02-08T21:34:31.032Z,99544.13
2023-02-08T21:37:04.169Z,99545.00
2023-02-08T21:39:38.660Z,99538.25
2023-02-08T21:42:11.800Z,99548.00
2023-02-08T21:44:44.884Z,99543.75
2023-02-08T21:47:18.956Z,99548.34
2023-02-08T21:50:09.494Z,99535.91
2023-02-08T21:53:00.104Z,99540.47
2023-02-08T21:55:34.694Z,99541.94
2023-02-08T21:58:07.983Z,99536.78
2023-02-08T22:00:41.549Z,99528.97
2023-02-08T22:03:14.747Z,99533.66
2023-02-08T22:06:06.014Z,99533.13
2023-02-08T22:08:39.196Z,99519.66
2023-02-08T22:11:15.213Z,99516.59
2023-02-08T22:13:48.313Z,99509.34
2023-02-08T22:16:21.492Z,99517.41
2023-02-08T22:18:54.622Z,99508.44
2023-02-08T22:21:27.781Z,99505.38
2023-02-08T22:24:01.344Z,99507.66
2023-02-08T22:26:35.757Z,99518.97
2023-02-08T22:29:08.813Z,99515.00
2023-02-08T22:31:41.983Z,99532.03
2023-02-08T22:34:15.079Z,99527.00
2023-02-08T22:36:48.180Z,99523.88
2023-02-08T22:39:22.096Z,99520.38
2023-02-08T22:41:56.983Z,99522.56
2023-02-08T22:44:30.208Z,99513.72
2023-02-08T22:47:03.658Z,99519.25
2023-02-08T22:49:37.467Z,99522.91
2023-02-08T22:52:11.452Z,99521.22
2023-02-08T22:54:44.826Z,99521.81
2023-02-08T22:57:20.917Z,99508.91
2023-02-08T22:59:54.109Z,99521.56
2023-02-08T23:02:27.622Z,99502.94
2023-02-08T23:05:00.728Z,99512.50
2023-02-08T23:07:33.943Z,99511.09
2023-02-08T23:10:07.954Z,99510.22
2023-02-08T23:12:42.506Z,99510.94
2023-02-08T23:15:15.846Z,99505.22
2023-02-08T23:17:48.923Z,99504.56
2023-02-08T23:20:22.005Z,99498.91
2023-02-08T23:22:55.105Z,99499.25
2023-02-08T23:25:28.834Z,99508.78
2023-02-08T23:28:03.274Z,99505.22
2023-02-08T23:30:36.687Z,99508.78
2023-02-08T23:33:10.582Z,99504.38
2023-02-08T23:35:46.235Z,99506.94
2023-02-08T23:38:19.612Z,99510.88
2023-02-08T23:40:52.834Z,99508.91
2023-02-08T23:43:27.679Z,99506.59
2023-02-08T23:46:06.672Z,99504.75
2023-02-08T23:48:39.791Z,99504.75
2023-02-08T23:51:12.864Z,99499.94
2023-02-08T23:53:46.595Z,99499.31
2023-02-08T23:56:22.878Z,99498.97
2023-02-08T23:58:59.385Z,99492.78
